Time;durP1;ratioP1;P1;durP2;ratioP2;P2;SDS_P1;SDS_P2;PMS_P1;PMS_P2;Temp;Humidity;BMP_temperature;BMP_pressure;BME280_temperature;BME280_humidity;BME280_pressure;Samples;Min_cycle;Max_cycle;Signal;HPM_P1;HPM_P2
2023/06/07 00:01:21;;;;;;;5.00;3.60;;;;;;;16.78;77.57;97533.31;110153;1242;59724;-68
2023/06/07 00:03:53;;;;;;;5.50;3.30;;;;;;;16.77;78.45;97528.66;110134;1242;71678;-69
2023/06/07 00:06:22;;;;;;;4.70;3.40;;;;;;;16.75;77.59;97527.98;110167;1242;69252;-68
2023/06/07 00:08:53;;;;;;;4.90;3.40;;;;;;;16.76;77.92;97527.92;110162;1242;69755;-69
2023/06/07 00:11:25;;;;;;;5.50;3.30;;;;;;;16.73;78.50;97528.05;110152;1242;59739;-68
2023/06/07 00:13:56;;;;;;;5.10;4.00;;;;;;;16.73;78.06;97531.70;110170;1242;59644;-68
2023/06/07 00:16:27;;;;;;;4.20;3.10;;;;;;;16.74;75.90;97533.39;110163;1241;71390;-68
2023/06/07 00:18:57;;;;;;;4.60;3.10;;;;;;;16.75;74.79;97530.81;110227;1245;69794;-68
2023/06/07 00:21:27;;;;;;;;;;;;;;;16.74;74.81;97531.94;110179;1242;68368;-68
2023/06/07 00:23:57;;;;;;;4.60;3.10;;;;;;;16.72;74.12;97532.65;110114;1240;59681;-68
2023/06/07 00:26:28;;;;;;;5.30;3.50;;;;;;;16.71;76.40;97536.48;110138;1242;59587;-68
2023/06/07 00:28:57;;;;;;;6.00;4.20;;;;;;;16.68;81.65;97531.98;110139;1242;71184;-69
2023/06/07 00:31:27;;;;;;;4.70;3.10;;;;;;;16.68;81.75;97529.38;110166;1240;68844;-69
2023/06/07 00:33:59;;;;;;;4.80;3.50;;;;;;;16.65;82.76;97531.56;110106;1242;67436;-69
2023/06/07 00:36:29;;;;;;;6.20;4.20;;;;;;;16.65;80.99;97528.23;110200;1242;59732;-68
2023/06/07 00:39:02;;;;;;;5.30;4.10;;;;;;;16.65;83.74;97527.73;109915;1244;59691;-67
2023/06/07 00:41:33;;;;;;;5.60;3.50;;;;;;;16.61;85.55;97528.77;110192;1240;70449;-67
2023/06/07 00:44:05;;;;;;;5.70;3.70;;;;;;;16.60;84.16;97527.18;110139;1242;68545;-67
2023/06/07 00:46:36;;;;;;;6.40;3.50;;;;;;;16.54;82.85;97527.30;109815;1244;69476;-68
2023/06/07 00:49:07;;;;;;;4.50;3.60;;;;;;;16.53;80.80;97528.64;109887;1240;59746;-69
2023/06/07 00:51:37;;;;;;;4.50;3.50;;;;;;;16.52;79.88;97525.79;110154;1242;59723;-69
2023/06/07 00:54:08;;;;;;;5.10;3.10;;;;;;;16.51;79.11;97530.11;110131;1242;71412;-68
2023/06/07 00:56:41;;;;;;;5.00;3.30;;;;;;;16.53;77.87;97530.98;110067;1240;68436;-67
2023/06/07 00:59:12;;;;;;;4.20;3.20;;;;;;;16.53;76.72;97532.39;110107;1240;69101;-67
2023/06/07 01:01:47;;;;;;;4.40;3.30;;;;;;;16.54;77.53;97529.41;110100;1240;59675;-68
2023/06/07 01:04:20;;;;;;;6.60;3.80;;;;;;;16.53;77.85;97530.95;110148;1244;59676;-69
2023/06/07 01:06:53;;;;;;;4.20;3.30;;;;;;;16.51;77.23;97530.83;110115;1244;70220;-69
2023/06/07 01:09:25;;;;;;;4.60;3.70;;;;;;;16.51;78.49;97530.08;110115;1241;68446;-68
2023/06/07 01:12:08;;;;;;;6.00;4.40;;;;;;;16.51;82.28;97526.45;110125;1242;69236;-69
2023/06/07 01:14:43;;;;;;;5.50;4.10;;;;;;;16.50;83.57;97524.71;110138;1242;59670;-69
2023/06/07 01:17:14;;;;;;;7.80;5.80;;;;;;;16.49;84.97;97529.44;110149;1242;59699;-68
2023/06/07 01:19:52;;;;;;;5.90;4.90;;;;;;;16.44;86.80;97529.33;110227;1244;72262;-69
2023/06/07 01:22:29;;;;;;;4.70;3.60;;;;;;;16.39;84.38;97526.68;110169;1243;68238;-69
2023/06/07 01:25:02;;;;;;;4.90;3.70;;;;;;;16.36;84.17;97531.91;110148;1242;68322;-69
2023/06/07 01:27:36;;;;;;;5.00;3.60;;;;;;;16.33;82.70;97529.02;110127;1242;59683;-69
2023/06/07 01:30:10;;;;;;;6.30;3.70;;;;;;;16.30;83.38;97529.39;110192;1240;59665;-68
2023/06/07 01:32:42;;;;;;;4.60;3.70;;;;;;;16.28;83.08;97527.70;110188;1243;70553;-69
2023/06/07 01:35:13;;;;;;;4.60;3.70;;;;;;;16.27;82.23;97524.92;109931;1244;69147;-68
2023/06/07 01:37:50;;;;;;;4.70;3.80;;;;;;;16.29;83.46;97529.39;109946;1240;69654;-69
2023/06/07 01:40:24;;;;;;;4.80;4.10;;;;;;;16.24;83.04;97530.31;110152;1242;60082;-68
2023/06/07 01:42:56;;;;;;;4.60;3.50;;;;;;;16.23;85.40;97530.11;110161;1242;60130;-68
2023/06/07 01:45:27;;;;;;;5.30;3.90;;;;;;;16.22;84.90;97533.55;110140;1240;71618;-67
2023/06/07 01:47:59;;;;;;;5.00;3.50;;;;;;;16.19;83.87;97533.61;110165;1247;69253;-68
2023/06/07 01:50:31;;;;;;;6.00;3.80;;;;;;;16.11;82.92;97536.68;110141;1242;69302;-68
2023/06/07 01:53:01;;;;;;;4.90;3.80;;;;;;;16.06;84.38;97534.00;110110;1247;59756;-69
2023/06/07 01:55:30;;;;;;;5.40;3.60;;;;;;;16.05;85.11;97534.27;109888;1244;59643;-68
2023/06/07 01:58:25;;;;;;;4.80;3.80;;;;;;;16.01;85.72;97532.85;110149;1240;71803;-69
2023/06/07 02:01:26;;;;;;;6.80;3.90;;;;;;;15.97;90.35;97533.58;110131;1244;69374;-70
2023/06/07 02:04:00;;;;;;;5.60;3.60;;;;;;;15.96;88.63;97535.48;110131;1242;68611;-69
2023/06/07 02:06:34;;;;;;;5.70;3.90;;;;;;;15.93;90.20;97538.89;109787;1241;59990;-69
2023/06/07 02:09:10;;;;;;;4.20;3.60;;;;;;;15.93;87.63;97537.86;110165;1243;59748;-68
2023/06/07 02:11:47;;;;;;;4.20;3.60;;;;;;;15.93;88.55;97534.27;109897;1244;70679;-65
2023/06/07 02:14:20;;;;;;;5.70;3.40;;;;;;;15.95;85.61;97539.25;109819;1241;68533;-67
2023/06/07 02:16:55;;;;;;;5.80;3.60;;;;;;;15.95;78.84;97533.28;109964;1240;69259;-67
2023/06/07 02:19:28;;;;;;;5.70;4.00;;;;;;;15.98;82.38;97538.55;109820;1242;59686;-66
2023/06/07 02:22:00;;;;;;;5.00;3.90;;;;;;;15.97;90.35;97537.61;110151;1244;59685;-69
2023/06/07 02:24:30;;;;;;;4.80;3.70;;;;;;;15.93;92.12;97533.79;109803;1240;70436;-67
2023/06/07 02:27:03;;;;;;;4.00;3.60;;;;;;;15.89;89.75;97529.38;110195;1241;68304;-67
2023/06/07 02:29:34;;;;;;;5.50;3.70;;;;;;;15.88;90.91;97527.27;110136;1243;68491;-70
2023/06/07 02:32:05;;;;;;;5.80;4.40;;;;;;;15.86;93.31;97531.30;110147;1241;59683;-68
2023/06/07 02:34:37;;;;;;;6.30;4.30;;;;;;;15.82;97.00;97533.91;110167;1241;59737;-68
2023/06/07 02:37:08;;;;;;;6.00;4.40;;;;;;;15.73;99.55;97528.75;110175;1240;71073;-67
2023/06/07 02:39:40;;;;;;;6.40;4.30;;;;;;;15.64;97.07;97527.69;109937;1245;69212;-67
2023/06/07 02:42:10;;;;;;;5.60;4.20;;;;;;;15.55;97.44;97530.59;110172;1246;68501;-69
2023/06/07 02:44:41;;;;;;;4.90;3.80;;;;;;;15.47;97.85;97536.94;110216;1242;59678;-67
2023/06/07 02:47:10;;;;;;;5.20;3.80;;;;;;;15.39;98.12;97535.52;110183;1243;59676;-67
2023/06/07 02:49:41;;;;;;;;;;;;;;;15.37;97.45;97531.40;109850;1245;70672;-67
2023/06/07 02:52:11;;;;;;;6.20;4.80;;;;;;;15.34;95.86;97525.81;110152;1242;69118;-68
2023/06/07 02:54:41;;;;;;;7.90;5.30;;;;;;;15.30;97.03;97525.98;110098;1244;69390;-68
2023/06/07 02:57:10;;;;;;;7.90;5.50;;;;;;;15.26;98.52;97522.80;109786;1244;60075;-67
2023/06/07 02:59:41;;;;;;;6.20;4.30;;;;;;;15.24;99.45;97526.38;110150;1243;59701;-67
2023/06/07 03:02:12;;;;;;;7.20;5.30;;;;;;;15.23;99.86;97526.40;110135;1244;70734;-66
2023/06/07 03:04:46;;;;;;;7.30;5.80;;;;;;;15.23;100.00;97527.15;110177;1245;67796;-67
2023/06/07 03:07:20;;;;;;;7.70;5.40;;;;;;;15.21;99.18;97529.76;110159;1241;69322;-68
2023/06/07 03:09:51;;;;;;;10.30;6.70;;;;;;;15.22;96.99;97526.73;110088;1244;59742;-67
2023/06/07 03:12:22;;;;;;;10.80;7.50;;;;;;;15.19;100.00;97528.02;110016;1244;59627;-69
2023/06/07 03:14:57;;;;;;;9.80;6.70;;;;;;;15.17;100.00;97525.90;110179;1242;71248;-67
2023/06/07 03:17:30;;;;;;;9.60;7.10;;;;;;;15.16;100.00;97531.11;109853;1244;69232;-67
2023/06/07 03:20:04;;;;;;;9.90;6.90;;;;;;;15.18;100.00;97531.16;109807;1240;69088;-67
2023/06/07 03:22:38;;;;;;;8.20;6.50;;;;;;;15.16;100.00;97528.45;109862;1243;59716;-69
2023/06/07 03:25:10;;;;;;;7.50;5.80;;;;;;;15.16;100.00;97537.11;110140;1243;59652;-67
2023/06/07 03:27:40;;;;;;;7.90;5.60;;;;;;;15.16;100.00;97539.17;110175;1245;70660;-68
2023/06/07 03:30:19;;;;;;;7.10;5.60;;;;;;;15.18;100.00;97538.84;110170;1242;69683;-69
2023/06/07 03:32:49;;;;;;;7.80;5.60;;;;;;;15.20;100.00;97534.22;109937;1244;69849;-68
2023/06/07 03:35:21;;;;;;;9.50;6.40;;;;;;;15.22;100.00;97532.02;109959;1244;59676;-66
2023/06/07 03:37:51;;;;;;;7.80;5.60;;;;;;;15.20;100.00;97534.09;110162;1243;59667;-69
2023/06/07 03:40:25;;;;;;;9.70;6.50;;;;;;;15.18;100.00;97535.98;110124;1242;71401;-69
2023/06/07 03:42:54;;;;;;;7.90;6.20;;;;;;;15.17;100.00;97540.31;109982;1244;69049;-69
2023/06/07 03:45:25;;;;;;;8.30;6.00;;;;;;;15.19;100.00;97548.92;109920;1244;68720;-68
2023/06/07 03:48:00;;;;;;;7.00;5.30;;;;;;;15.22;100.00;97549.91;110131;1245;59770;-66
2023/06/07 03:50:31;;;;;;;6.10;5.30;;;;;;;15.23;100.00;97549.08;110146;1241;59713;-66
2023/06/07 03:53:02;;;;;;;6.70;4.90;;;;;;;15.25;100.00;97548.73;110101;1243;71430;-66
2023/06/07 03:55:33;;;;;;;6.00;5.00;;;;;;;15.25;100.00;97545.58;110129;1244;67504;-68
2023/06/07 03:58:05;;;;;;;6.70;4.70;;;;;;;15.26;100.00;97547.73;110100;1244;69294;-65
2023/06/07 04:00:36;;;;;;;6.30;4.90;;;;;;;15.29;99.80;97544.31;110032;1241;59741;-68
2023/06/07 04:03:08;;;;;;;6.70;5.20;;;;;;;15.32;99.22;97544.95;109969;1243;59660;-66
2023/06/07 04:05:38;;;;;;;7.90;4.80;;;;;;;15.35;98.81;97545.92;109927;1243;71379;-68
2023/06/07 04:08:09;;;;;;;;;;;;;;;15.38;97.55;97545.42;109961;1244;69958;-68
2023/06/07 04:10:41;;;;;;;6.60;4.80;;;;;;;15.42;96.60;97551.73;110095;1244;68851;-68
2023/06/07 04:13:11;;;;;;;7.00;5.50;;;;;;;15.44;97.71;97548.26;110025;1244;59704;-68
2023/06/07 04:15:41;;;;;;;;;;;;;;;15.46;100.00;97549.14;110155;1242;59671;-68
2023/06/07 04:18:10;;;;;;;7.20;5.10;;;;;;;15.46;100.00;97544.70;109861;1242;71382;-68
2023/06/07 04:20:41;;;;;;;7.50;5.20;;;;;;;15.48;100.00;97544.17;109884;1245;68697;-68
2023/06/07 04:23:12;;;;;;;5.40;4.60;;;;;;;15.52;100.00;97544.88;109861;1244;69672;-69
2023/06/07 04:25:43;;;;;;;7.20;6.50;;;;;;;15.55;100.00;97545.31;109902;1243;59606;-69
2023/06/07 04:28:13;;;;;;;7.10;5.40;;;;;;;15.57;100.00;97547.67;110157;1242;59689;-68
2023/06/07 04:30:44;;;;;;;8.10;6.10;;;;;;;15.60;100.00;97547.86;110129;1245;71835;-69
2023/06/07 04:33:17;;;;;;;8.80;5.60;;;;;;;15.64;100.00;97549.80;110132;1243;67725;-69
2023/06/07 04:35:50;;;;;;;6.90;5.20;;;;;;;15.67;99.78;97550.59;110097;1244;69698;-69
2023/06/07 04:38:21;;;;;;;6.30;4.90;;;;;;;15.73;98.18;97550.90;109972;1245;59752;-69
2023/06/07 04:41:00;;;;;;;6.30;4.90;;;;;;;15.76;99.66;97551.13;110153;1242;59646;-66
2023/06/07 04:43:37;;;;;;;7.90;5.80;;;;;;;15.80;100.00;97550.95;110153;1242;72739;-70
2023/06/07 04:46:12;;;;;;;8.00;5.90;;;;;;;15.87;100.00;97553.83;110194;1245;69020;-68
2023/06/07 04:48:43;;;;;;;8.50;6.40;;;;;;;15.94;100.00;97554.57;109933;1244;69276;-67
2023/06/07 04:51:20;;;;;;;7.10;5.90;;;;;;;16.01;100.00;97556.95;110198;1244;59738;-69
2023/06/07 04:54:01;;;;;;;11.40;6.40;;;;;;;16.12;100.00;97555.94;109963;1244;59688;-69
2023/06/07 04:56:33;;;;;;;6.10;5.00;;;;;;;16.22;99.65;97555.14;109902;1245;71966;-68
2023/06/07 04:59:04;;;;;;;5.60;4.00;;;;;;;16.34;97.23;97552.64;110187;1242;69113;-67
2023/06/07 05:01:36;;;;;;;6.50;4.30;;;;;;;16.44;95.87;97547.16;109974;1244;69187;-68
2023/06/07 05:04:07;;;;;;;5.30;4.50;;;;;;;16.53;94.72;97548.06;110187;1241;59738;-68
2023/06/07 05:06:41;;;;;;;5.70;4.80;;;;;;;16.60;95.83;97545.76;110154;1250;59684;-68
2023/06/07 05:09:11;;;;;;;5.20;3.70;;;;;;;16.68;96.30;97544.66;110192;1244;71469;-68
2023/06/07 05:11:41;;;;;;;5.40;3.70;;;;;;;16.76;93.61;97546.20;110191;1245;69914;-67
2023/06/07 05:14:10;;;;;;;8.10;3.70;;;;;;;16.86;91.11;97543.17;110184;1244;69897;-68
2023/06/07 05:16:43;;;;;;;6.90;4.50;;;;;;;16.91;89.76;97542.79;110177;1240;59678;-68
2023/06/07 05:19:17;;;;;;;5.60;4.00;;;;;;;16.99;90.00;97540.33;110168;1244;59707;-68
2023/06/07 05:21:46;;;;;;;5.90;4.30;;;;;;;17.10;89.93;97544.91;110188;1244;72101;-68
2023/06/07 05:24:15;;;;;;;6.70;4.80;;;;;;;17.21;88.85;97543.59;110187;1242;69851;-69
2023/06/07 05:26:45;;;;;;;5.90;4.60;;;;;;;17.31;89.33;97543.53;110199;1242;69874;-68
2023/06/07 05:29:15;;;;;;;6.60;4.70;;;;;;;17.43;90.34;97544.08;110173;1250;59665;-68
2023/06/07 05:31:44;;;;;;;6.60;4.90;;;;;;;17.52;88.89;97543.06;109924;1245;59735;-69
2023/06/07 05:34:13;;;;;;;6.20;4.50;;;;;;;17.59;86.93;97547.48;109896;1245;71981;-68
2023/06/07 05:36:45;;;;;;;6.70;4.50;;;;;;;17.68;85.69;97547.29;110015;1245;69191;-69
2023/06/07 05:39:15;;;;;;;5.80;4.00;;;;;;;17.72;83.26;97547.77;110147;1243;69111;-69
2023/06/07 05:41:45;;;;;;;5.20;4.20;;;;;;;17.82;81.48;97548.20;110074;1241;59755;-69
2023/06/07 05:44:15;;;;;;;6.00;4.50;;;;;;;17.93;83.57;97550.83;109957;1244;59733;-69
2023/06/07 05:46:44;;;;;;;4.60;4.20;;;;;;;18.05;82.75;97552.06;110146;1244;71597;-69
2023/06/07 05:49:14;;;;;;;5.30;4.00;;;;;;;18.16;82.43;97551.26;110146;1243;69214;-69
2023/06/07 05:51:44;;;;;;;6.40;3.60;;;;;;;18.30;81.26;97551.83;109815;1253;69885;-69
2023/06/07 05:54:13;;;;;;;7.10;4.00;;;;;;;18.48;81.40;97556.50;109930;1244;59687;-68
2023/06/07 05:56:42;;;;;;;4.40;3.40;;;;;;;18.66;80.95;97557.27;110154;1245;59631;-69
2023/06/07 05:59:12;;;;;;;;;;;;;;;18.81;78.72;97554.63;110156;1245;70631;-69
2023/06/07 06:01:42;;;;;;;4.30;3.50;;;;;;;18.94;77.82;97554.94;110113;1244;68804;-68
2023/06/07 06:04:12;;;;;;;5.40;3.60;;;;;;;19.03;74.47;97552.89;110096;1244;68631;-69
2023/06/07 06:06:41;;;;;;;6.40;3.70;;;;;;;19.18;73.60;97552.75;110133;1243;59700;-67
2023/06/07 06:09:10;;;;;;;3.70;3.10;;;;;;;19.33;73.06;97548.27;110144;1245;59708;-68
2023/06/07 06:11:39;;;;;;;4.00;3.10;;;;;;;19.46;70.97;97546.25;110071;1242;71839;-66
2023/06/07 06:14:08;;;;;;;3.90;3.00;;;;;;;19.60;71.47;97545.08;110091;1245;70182;-68
2023/06/07 06:16:37;;;;;;;4.60;3.20;;;;;;;19.77;70.00;97544.47;110100;1243;69256;-68
2023/06/07 06:19:07;;;;;;;3.60;3.20;;;;;;;19.92;69.09;97535.91;110158;1243;59747;-66
2023/06/07 06:21:36;;;;;;;4.10;3.20;;;;;;;20.07;69.09;97538.55;110125;1245;59702;-69
2023/06/07 06:24:06;;;;;;;6.30;3.50;;;;;;;20.27;69.18;97536.52;110137;1241;71408;-69
2023/06/07 06:26:35;;;;;;;4.90;3.60;;;;;;;20.41;65.51;97538.58;110112;1245;69918;-69
2023/06/07 06:29:04;;;;;;;6.70;3.50;;;;;;;20.57;64.74;97531.81;110062;1243;69867;-67
2023/06/07 06:31:33;;;;;;;;;;;;;;;20.76;64.95;97532.96;110060;1245;59702;-67
2023/06/07 06:34:03;;;;;;;5.20;3.30;;;;;;;20.97;63.74;97531.96;110165;1251;59745;-67
2023/06/07 06:36:32;;;;;;;4.60;3.10;;;;;;;21.15;60.47;97532.98;110103;1242;71991;-67
2023/06/07 06:39:04;;;;;;;4.00;2.80;;;;;;;21.40;61.90;97530.91;110140;1242;69530;-69
2023/06/07 06:41:35;;;;;;;4.70;3.70;;;;;;;21.65;60.94;97525.95;110109;1243;69248;-68
2023/06/07 06:44:04;;;;;;;3.90;3.10;;;;;;;21.80;57.92;97522.70;110150;1242;59696;-68
2023/06/07 06:46:34;;;;;;;4.10;3.20;;;;;;;21.99;57.60;97519.02;110186;1242;59748;-68
2023/06/07 06:49:02;;;;;;;6.80;3.40;;;;;;;22.29;58.50;97519.80;109669;1241;615415;-68
2023/06/07 06:51:40;;;;;;;5.00;3.30;;;;;;;22.49;58.13;97519.02;110151;1242;69796;-68
2023/06/07 06:54:13;;;;;;;4.20;3.10;;;;;;;22.65;56.80;97516.65;110136;1250;69963;-68
2023/06/07 06:56:43;;;;;;;4.50;3.20;;;;;;;22.73;54.84;97514.86;110139;1242;59699;-69
2023/06/07 06:59:12;;;;;;;4.20;2.60;;;;;;;22.78;53.44;97514.15;110145;1247;59693;-69
2023/06/07 07:01:46;;;;;;;4.80;3.00;;;;;;;22.86;53.71;97513.95;110158;1242;71358;-68
2023/06/07 07:04:17;;;;;;;4.30;3.30;;;;;;;22.85;52.93;97510.21;110224;1242;69050;-68
2023/06/07 07:06:46;;;;;;;4.20;3.00;;;;;;;22.80;51.76;97510.45;110163;1240;69705;-69
2023/06/07 07:09:16;;;;;;;4.00;2.90;;;;;;;22.82;51.49;97513.21;110132;1242;59756;-68
2023/06/07 07:11:47;;;;;;;5.40;2.80;;;;;;;22.75;50.17;97515.33;110181;1242;59675;-68
2023/06/07 07:14:16;;;;;;;4.10;2.80;;;;;;;23.01;50.39;97516.25;110135;1243;71352;-69
2023/06/07 07:16:45;;;;;;;4.20;2.90;;;;;;;23.20;48.79;97512.89;110167;1242;68498;-68
2023/06/07 07:19:14;;;;;;;4.30;3.00;;;;;;;23.45;47.31;97501.41;110180;1242;69738;-68
2023/06/07 07:21:44;;;;;;;5.50;2.90;;;;;;;23.74;47.50;97505.85;110140;1241;59755;-68
2023/06/07 07:24:13;;;;;;;4.50;3.00;;;;;;;24.03;45.91;97505.05;110189;1242;59700;-68
2023/06/07 07:26:42;;;;;;;;;;;;;;;24.23;46.41;97505.81;110171;1242;71992;-68
2023/06/07 07:29:11;;;;;;;4.20;2.70;;;;;;;24.60;46.59;97507.04;110233;1242;69738;-69
2023/06/07 07:31:40;;;;;;;5.50;3.10;;;;;;;24.82;45.68;97510.39;110145;1242;69680;-67
2023/06/07 07:34:10;;;;;;;4.80;3.00;;;;;;;25.28;45.74;97508.67;110144;1240;59755;-67
2023/06/07 07:36:40;;;;;;;5.50;3.00;;;;;;;25.78;45.15;97505.71;110157;1241;59768;-69
2023/06/07 07:39:16;;;;;;;5.20;2.80;;;;;;;25.86;43.54;97505.40;110148;1240;71843;-69
2023/06/07 07:41:47;;;;;;;3.80;3.00;;;;;;;26.32;43.20;97511.08;110147;1241;69261;-69
2023/06/07 07:44:16;;;;;;;4.00;2.80;;;;;;;26.66;41.93;97514.70;110126;1247;69584;-68
2023/06/07 07:46:48;;;;;;;4.70;3.10;;;;;;;26.66;41.36;97523.15;109944;1240;59798;-69
2023/06/07 07:49:17;;;;;;;4.00;2.80;;;;;;;26.54;41.39;97522.02;110112;1242;59671;-70
2023/06/07 07:51:46;;;;;;;4.50;2.80;;;;;;;26.40;42.07;97526.50;110192;1242;71453;-71
2023/06/07 07:54:16;;;;;;;;;;;;;;;26.00;40.57;97525.61;110163;1244;69826;-69
2023/06/07 07:56:45;;;;;;;3.60;2.70;;;;;;;25.77;41.23;97526.17;110132;1240;69252;-69
2023/06/07 07:59:14;;;;;;;;;;;;;;;25.59;40.87;97526.46;110176;1242;59670;-70
2023/06/07 08:01:45;;;;;;;3.90;2.70;;;;;;;25.79;42.42;97528.41;110146;1242;59672;-69
2023/06/07 08:04:14;;;;;;;3.70;2.80;;;;;;;25.54;40.98;97529.77;110150;1240;72008;-68
2023/06/07 08:06:45;;;;;;;;;;;;;;;25.49;42.11;97533.33;110140;1240;69233;-69
2023/06/07 08:09:14;;;;;;;4.10;2.60;;;;;;;25.28;41.48;97533.00;110150;1242;69278;-70
2023/06/07 08:11:43;;;;;;;4.20;3.00;;;;;;;26.03;42.20;97527.70;110217;1241;59677;-69
2023/06/07 08:14:12;;;;;;;4.90;3.00;;;;;;;26.74;41.00;97528.64;110017;1246;59734;-69
2023/06/07 08:16:41;;;;;;;;;;;;;;;26.40;39.38;97525.58;110190;1243;70843;-69
2023/06/07 08:19:10;;;;;;;5.50;3.00;;;;;;;26.49;39.99;97524.49;110166;1242;68769;-68
2023/06/07 08:21:43;;;;;;;;;;;;;;;27.08;39.73;97530.67;110136;1242;69864;-68
2023/06/07 08:24:12;;;;;;;5.70;3.00;;;;;;;27.15;38.72;97531.94;110144;1242;59670;-69
2023/06/07 08:26:44;;;;;;;3.70;2.90;;;;;;;27.50;39.94;97536.61;110159;1242;60151;-70
2023/06/07 08:29:14;;;;;;;3.40;2.50;;;;;;;27.56;39.12;97531.70;110162;1242;70643;-69
2023/06/07 08:31:43;;;;;;;;;;;;;;;27.66;39.33;97530.36;110169;1247;69081;-69
2023/06/07 08:34:13;;;;;;;3.70;3.20;;;;;;;27.75;38.25;97523.29;110161;1240;69136;-68
2023/06/07 08:36:42;;;;;;;3.50;2.70;;;;;;;27.83;36.72;97524.11;110170;1242;59744;-69
2023/06/07 08:39:11;;;;;;;4.00;2.80;;;;;;;28.24;38.13;97523.48;110126;1242;59650;-68
2023/06/07 08:41:40;;;;;;;4.00;2.80;;;;;;;28.51;37.47;97522.03;110155;1240;72346;-69
2023/06/07 08:44:10;;;;;;;5.60;3.00;;;;;;;28.72;36.43;97520.89;110168;1242;69230;-69
2023/06/07 08:46:39;;;;;;;2.90;2.50;;;;;;;28.89;37.44;97520.62;109986;1244;69868;-69
2023/06/07 08:49:12;;;;;;;4.20;3.20;;;;;;;28.96;37.39;97521.56;110125;1240;59693;-68
2023/06/07 08:51:42;;;;;;;4.60;2.60;;;;;;;28.97;37.29;97515.76;110138;1243;59674;-67
2023/06/07 08:54:15;;;;;;;5.20;2.90;;;;;;;28.95;36.52;97513.63;110127;1240;71971;-68
2023/06/07 08:56:45;;;;;;;5.50;2.90;;;;;;;28.87;35.92;97514.22;110173;1242;69298;-68
2023/06/07 08:59:17;;;;;;;3.90;2.80;;;;;;;27.88;36.30;97512.27;110166;1245;69245;-68
2023/06/07 09:01:47;;;;;;;4.70;3.10;;;;;;;27.82;36.59;97510.59;110169;1242;59748;-68
2023/06/07 09:04:17;;;;;;;3.90;2.70;;;;;;;27.88;36.65;97503.98;110193;1240;59710;-69
2023/06/07 09:06:47;;;;;;;3.80;2.60;;;;;;;28.29;37.80;97503.49;110173;1242;72068;-69
2023/06/07 09:09:17;;;;;;;3.10;2.40;;;;;;;28.80;37.00;97503.20;110143;1242;69263;-66
2023/06/07 09:11:52;;;;;;;3.20;2.10;;;;;;;29.46;36.60;97497.42;110152;1242;69881;-69
2023/06/07 09:14:21;;;;;;;4.10;2.80;;;;;;;29.82;35.75;97502.11;110195;1243;59685;-69
2023/06/07 09:16:53;;;;;;;3.80;2.40;;;;;;;29.68;35.26;97501.88;110131;1242;59679;-69
2023/06/07 09:19:39;;;;;;;3.20;2.40;;;;;;;30.10;35.81;97501.03;110112;1241;71995;-69
2023/06/07 09:22:14;;;;;;;3.80;2.60;;;;;;;29.95;35.59;97501.91;110163;1242;69722;-71
2023/06/07 09:24:42;;;;;;;4.40;2.90;;;;;;;30.34;33.97;97497.67;110150;1249;69295;-68
2023/06/07 09:27:13;;;;;;;4.40;2.70;;;;;;;30.39;33.51;97501.66;110090;1242;59725;-70
2023/06/07 09:29:43;;;;;;;3.90;2.60;;;;;;;30.42;33.31;97502.15;110157;1242;59628;-69
2023/06/07 09:32:19;;;;;;;3.70;3.00;;;;;;;30.30;33.68;97503.45;110147;1242;72119;-69
2023/06/07 09:34:49;;;;;;;3.60;2.40;;;;;;;30.53;33.34;97504.05;110144;1242;69872;-68
2023/06/07 09:37:23;;;;;;;3.80;2.50;;;;;;;30.12;32.57;97501.08;110159;1242;69715;-69
2023/06/07 09:39:52;;;;;;;3.70;2.70;;;;;;;30.40;33.46;97497.48;110153;1243;59709;-70
2023/06/07 09:42:21;;;;;;;3.60;2.30;;;;;;;30.24;33.38;97494.23;110126;1242;59678;-70
2023/06/07 09:44:51;;;;;;;3.30;2.70;;;;;;;30.17;34.13;97494.72;110116;1241;71379;-68
2023/06/07 09:47:22;;;;;;;4.70;3.00;;;;;;;30.14;34.54;97488.63;110141;1243;69719;-69
2023/06/07 09:50:04;;;;;;;3.70;2.60;;;;;;;30.63;33.41;97489.77;110133;1242;69874;-68
2023/06/07 09:52:34;;;;;;;5.40;2.80;;;;;;;30.08;33.54;97485.35;110171;1242;59681;-68
2023/06/07 09:55:08;;;;;;;4.70;3.00;;;;;;;30.07;33.32;97479.28;110113;1242;59740;-69
2023/06/07 09:57:37;;;;;;;4.40;2.50;;;;;;;30.16;33.38;97473.85;110120;1241;69872;-69
2023/06/07 10:00:13;;;;;;;3.70;2.40;;;;;;;29.78;33.83;97475.09;110150;1242;69566;-68
2023/06/07 10:02:44;;;;;;;4.10;2.70;;;;;;;30.52;33.85;97475.02;110122;1242;69881;-68
2023/06/07 10:05:21;;;;;;;3.40;2.70;;;;;;;30.24;33.62;97470.04;109753;1247;59752;-68
2023/06/07 10:07:56;;;;;;;3.50;2.30;;;;;;;30.64;33.31;97469.95;110133;1243;59711;-69
2023/06/07 10:10:27;;;;;;;3.50;2.70;;;;;;;30.86;32.53;97464.91;110127;1242;71197;-69
2023/06/07 10:12:58;;;;;;;3.40;2.90;;;;;;;30.85;31.98;97459.49;110103;1243;69164;-67
2023/06/07 10:15:29;;;;;;;3.30;2.10;;;;;;;30.13;32.17;97459.41;110125;1242;69843;-68
2023/06/07 10:18:06;;;;;;;2.80;2.20;;;;;;;29.90;34.28;97461.23;110130;1243;59739;-70
2023/06/07 10:20:40;;;;;;;3.20;2.60;;;;;;;30.09;33.26;97460.04;110212;1241;59708;-70
2023/06/07 10:23:19;;;;;;;4.10;3.00;;;;;;;30.01;33.29;97461.30;110179;1249;71990;-69
2023/06/07 10:26:03;;;;;;;3.10;2.80;;;;;;;29.89;32.38;97462.48;110168;1242;69218;-69
2023/06/07 10:28:46;;;;;;;3.90;2.70;;;;;;;29.70;32.26;97460.05;110118;1240;69758;-69
2023/06/07 10:31:16;;;;;;;3.10;2.70;;;;;;;29.77;33.24;97460.96;110099;1242;59744;-68
2023/06/07 10:33:48;;;;;;;3.30;2.70;;;;;;;30.04;32.83;97459.86;110134;1243;59677;-68
2023/06/07 10:36:19;;;;;;;3.80;2.40;;;;;;;29.94;31.97;97459.76;110178;1242;71299;-70
2023/06/07 10:38:48;;;;;;;3.60;2.90;;;;;;;29.86;32.22;97461.02;110169;1242;69670;-68
2023/06/07 10:41:17;;;;;;;;;;;;;;;29.69;32.55;97457.52;110170;1242;68518;-69
2023/06/07 10:43:47;;;;;;;4.70;2.80;;;;;;;29.42;32.94;97456.77;110176;1242;59685;-69
2023/06/07 10:46:20;;;;;;;4.10;2.80;;;;;;;28.98;33.78;97463.14;110192;1242;59646;-69
2023/06/07 10:48:50;;;;;;;3.30;2.60;;;;;;;28.67;33.56;97462.85;110267;1242;71984;-69
2023/06/07 10:51:48;;;;;;;3.40;2.40;;;;;;;28.29;33.75;97461.16;110164;1242;68363;-68
2023/06/07 10:54:34;;;;;;;4.80;3.10;;;;;;;28.34;34.21;97455.09;110139;1241;69294;-68
2023/06/07 10:57:04;;;;;;;4.70;2.90;;;;;;;28.31;34.10;97454.84;110175;1242;59750;-69
2023/06/07 10:59:35;;;;;;;2.70;2.20;;;;;;;28.33;34.63;97451.02;110169;1245;59792;-69
2023/06/07 11:02:19;;;;;;;3.30;2.60;;;;;;;28.35;35.34;97452.58;110129;1242;71309;-69
2023/06/07 11:04:55;;;;;;;4.70;2.40;;;;;;;28.35;34.72;97448.33;110181;1241;69605;-68
2023/06/07 11:07:31;;;;;;;5.60;2.70;;;;;;;28.41;33.71;97443.13;110152;1242;68296;-68
2023/06/07 11:10:10;;;;;;;4.20;2.30;;;;;;;28.56;33.97;97444.86;110132;1249;59742;-69
2023/06/07 11:12:45;;;;;;;3.40;2.40;;;;;;;28.78;33.49;97445.30;110170;1242;59601;-69
2023/06/07 11:15:17;;;;;;;3.60;2.40;;;;;;;28.57;33.18;97441.21;110165;1242;71363;-69
2023/06/07 11:17:58;;;;;;;3.70;2.50;;;;;;;28.13;33.23;97440.23;110154;1241;70139;-68
2023/06/07 11:20:41;;;;;;;4.30;2.50;;;;;;;27.68;33.83;97444.05;110136;1243;68889;-69
2023/06/07 11:23:25;;;;;;;3.50;2.40;;;;;;;27.70;34.35;97443.45;110157;1241;59720;-69
2023/06/07 11:25:58;;;;;;;3.80;2.50;;;;;;;27.82;33.94;97440.82;110147;1242;59687;-69
2023/06/07 11:28:29;;;;;;;4.70;2.90;;;;;;;27.51;34.20;97442.13;110131;1243;72014;-69
2023/06/07 11:30:58;;;;;;;2.90;2.40;;;;;;;27.23;34.12;97450.08;110125;1241;69094;-68
2023/06/07 11:33:28;;;;;;;3.60;2.20;;;;;;;26.92;34.22;97449.52;110116;1244;69612;-68
2023/06/07 11:35:57;;;;;;;4.00;2.70;;;;;;;26.97;34.84;97443.93;110125;1241;59655;-69
2023/06/07 11:38:27;;;;;;;3.60;2.40;;;;;;;27.15;34.28;97443.14;110128;1242;59671;-69
2023/06/07 11:40:56;;;;;;;5.40;2.60;;;;;;;27.27;34.30;97439.11;110179;1242;71973;-68
2023/06/07 11:43:27;;;;;;;3.00;2.40;;;;;;;27.22;33.72;97442.11;110156;1242;69047;-69
2023/06/07 11:45:58;;;;;;;3.90;2.40;;;;;;;27.14;34.32;97432.55;110180;1242;69909;-69
2023/06/07 11:48:28;;;;;;;3.70;2.70;;;;;;;27.29;34.26;97430.39;110136;1242;59708;-68